createdAt,value
2018-10-16T00:00:52.898Z,13.30
2018-10-16T00:03:22.877Z,13.28
2018-10-16T00:05:52.850Z,13.26
2018-10-16T00:08:22.792Z,13.25
2018-10-16T00:10:52.763Z,13.23
2018-10-16T00:13:22.744Z,13.22
2018-10-16T00:15:52.780Z,13.20
2018-10-16T00:18:22.767Z,13.19
2018-10-16T00:20:52.698Z,13.18
2018-10-16T00:23:22.715Z,13.17
2018-10-16T00:25:52.664Z,13.14
2018-10-16T00:28:22.625Z,13.12
2018-10-16T00:30:52.619Z,13.11
2018-10-16T00:33:22.604Z,13.09
2018-10-16T00:35:52.590Z,13.06
2018-10-16T00:38:22.522Z,13.05
2018-10-16T00:40:52.451Z,13.02
2018-10-16T00:43:22.409Z,13.01
2018-10-16T00:45:52.339Z,12.99
2018-10-16T00:48:22.347Z,12.98
2018-10-16T00:50:52.332Z,12.97
2018-10-16T00:53:22.262Z,12.95
2018-10-16T00:55:52.210Z,12.93
2018-10-16T00:58:22.147Z,12.92
2018-10-16T01:00:52.116Z,12.91
2018-10-16T01:03:22.121Z,12.91
2018-10-16T01:05:52.078Z,12.89
2018-10-16T01:08:21.988Z,12.87
2018-10-16T01:10:51.932Z,12.86
2018-10-16T01:13:21.912Z,12.85
2018-10-16T01:15:51.870Z,12.82
2018-10-16T01:18:21.830Z,12.80
2018-10-16T01:20:51.828Z,12.80
2018-10-16T01:23:21.781Z,12.79
2018-10-16T01:25:51.751Z,12.78
2018-10-16T01:28:21.723Z,12.76
2018-10-16T01:30:51.652Z,12.74
2018-10-16T01:33:21.623Z,12.72
2018-10-16T01:35:51.615Z,12.71
2018-10-16T01:38:21.528Z,12.71
2018-10-16T01:40:51.499Z,12.69
2018-10-16T01:43:21.539Z,12.67
2018-10-16T01:45:51.506Z,12.68
2018-10-16T01:48:21.444Z,12.67
2018-10-16T01:50:51.403Z,12.67
2018-10-16T01:53:21.420Z,12.67
2018-10-16T01:55:51.371Z,12.67
2018-10-16T01:58:21.360Z,12.66
2018-10-16T02:00:51.327Z,12.66
2018-10-16T02:03:21.299Z,12.66
2018-10-16T02:05:51.240Z,12.67
2018-10-16T02:08:21.155Z,12.67
2018-10-16T02:10:51.184Z,12.67
2018-10-16T02:13:21.979Z,12.68
2018-10-16T02:15:51.942Z,12.68
2018-10-16T02:18:21.920Z,12.69
2018-10-16T02:20:51.860Z,12.69
2018-10-16T02:23:21.798Z,12.70
2018-10-16T02:25:51.789Z,12.71
2018-10-16T02:28:21.687Z,12.74
2018-10-16T02:30:51.658Z,12.77
2018-10-16T02:33:21.654Z,12.79
2018-10-16T02:35:51.558Z,12.84
2018-10-16T02:38:21.540Z,12.88
2018-10-16T02:40:51.551Z,12.92
2018-10-16T02:43:21.612Z,12.95
2018-10-16T02:45:51.616Z,13.00
2018-10-16T02:48:21.594Z,13.04
2018-10-16T02:50:51.606Z,13.09
2018-10-16T02:53:21.568Z,13.13
2018-10-16T02:55:51.542Z,13.18
2018-10-16T02:58:21.579Z,13.22
2018-10-16T03:00:51.512Z,13.28
2018-10-16T03:03:21.474Z,13.32
2018-10-16T03:05:51.453Z,13.37
2018-10-16T03:08:21.440Z,13.41
2018-10-16T03:10:51.360Z,13.45
2018-10-16T03:13:21.257Z,13.49
2018-10-16T03:15:51.230Z,13.52
2018-10-16T03:18:21.184Z,13.55
2018-10-16T03:20:51.104Z,13.59
2018-10-16T03:23:21.073Z,13.61
2018-10-16T03:25:51.008Z,13.64
2018-10-16T03:28:20.951Z,13.66
2018-10-16T03:30:50.965Z,13.66
2018-10-16T03:33:20.967Z,13.69
2018-10-16T03:35:50.912Z,13.70
2018-10-16T03:38:20.889Z,13.72
2018-10-16T03:40:50.810Z,13.74
2018-10-16T03:43:21.833Z,13.76
2018-10-16T03:45:51.812Z,13.78
2018-10-16T03:48:21.805Z,13.79
2018-10-16T03:50:51.755Z,13.82
2018-10-16T03:53:21.716Z,13.83
2018-10-16T03:55:51.545Z,13.86
2018-10-16T03:58:21.544Z,13.87
2018-10-16T04:00:51.507Z,13.89
2018-10-16T04:03:21.487Z,13.91
2018-10-16T04:05:51.453Z,13.93
2018-10-16T04:08:21.392Z,13.93
2018-10-16T04:10:51.288Z,13.94
2018-10-16T04:13:21.240Z,13.96
2018-10-16T04:15:51.226Z,13.96
2018-10-16T04:18:21.159Z,13.97
2018-10-16T04:20:51.160Z,13.97
2018-10-16T04:23:21.125Z,13.99
2018-10-16T04:25:51.035Z,14.01
2018-10-16T04:28:21.014Z,14.03
2018-10-16T04:30:51.004Z,14.04
2018-10-16T04:33:20.953Z,14.07
2018-10-16T04:35:50.938Z,14.09
2018-10-16T04:38:20.905Z,14.12
2018-10-16T04:40:50.870Z,14.13
2018-10-16T04:43:20.990Z,14.15
2018-10-16T04:45:51.022Z,14.18
2018-10-16T04:48:21.013Z,14.19
2018-10-16T04:50:51.016Z,14.21
2018-10-16T04:53:21.078Z,14.23
2018-10-16T04:55:51.117Z,14.25
2018-10-16T04:58:21.079Z,14.27
2018-10-16T05:00:51.011Z,14.27
2018-10-16T05:03:21.002Z,14.29
2018-10-16T05:05:50.959Z,14.29
2018-10-16T05:08:20.899Z,14.30
2018-10-16T05:10:50.882Z,14.32
2018-10-16T05:13:20.904Z,14.32
2018-10-16T05:15:50.724Z,14.34
2018-10-16T05:18:20.677Z,14.35
2018-10-16T05:20:50.626Z,14.36
2018-10-16T05:23:20.592Z,14.36
2018-10-16T05:25:50.606Z,14.37
2018-10-16T05:28:20.548Z,14.38
2018-10-16T05:30:50.593Z,14.38
2018-10-16T05:33:20.534Z,14.37
2018-10-16T05:35:50.477Z,14.38
2018-10-16T05:38:20.479Z,14.38
2018-10-16T05:40:50.437Z,14.37
2018-10-16T05:43:20.407Z,14.37
2018-10-16T05:45:50.339Z,14.38
2018-10-16T05:48:20.335Z,14.37
2018-10-16T05:50:50.275Z,14.37
2018-10-16T05:53:20.316Z,14.35
2018-10-16T05:56:06.431Z,14.34
2018-10-16T05:58:36.635Z,14.34
2018-10-16T06:01:06.936Z,14.34
2018-10-16T06:03:36.914Z,14.33
2018-10-16T06:06:07.076Z,14.32
2018-10-16T06:08:37.027Z,14.32
2018-10-16T06:11:07.209Z,14.31
2018-10-16T06:13:37.144Z,14.32
2018-10-16T06:16:07.327Z,14.32
2018-10-16T06:18:37.222Z,14.32
2018-10-16T06:21:07.342Z,14.31
2018-10-16T06:23:37.337Z,14.32
2018-10-16T06:26:07.593Z,14.32
2018-10-16T06:28:37.569Z,14.33
2018-10-16T06:31:07.577Z,14.33
2018-10-16T06:33:38.122Z,14.32
2018-10-16T06:36:08.059Z,14.33
2018-10-16T06:38:38.054Z,14.34
2018-10-16T06:41:08.163Z,14.35
2018-10-16T06:43:38.589Z,14.36
2018-10-16T06:46:08.517Z,14.38
2018-10-16T06:48:38.744Z,14.39
2018-10-16T06:51:08.372Z,14.43
2018-10-16T06:53:38.334Z,14.45
2018-10-16T06:56:08.464Z,14.47
2018-10-16T06:58:38.427Z,14.50
2018-10-16T07:01:08.339Z,14.51
2018-10-16T07:03:38.289Z,14.53
2018-10-16T07:06:08.220Z,14.55
2018-10-16T07:08:38.149Z,14.58
2018-10-16T07:11:08.044Z,14.60
2018-10-16T07:13:38.042Z,14.65
2018-10-16T07:16:08.198Z,14.67
2018-10-16T07:18:38.209Z,14.70
2018-10-16T07:21:08.205Z,14.75
2018-10-16T07:23:38.597Z,14.79
2018-10-16T07:26:09.100Z,14.83
2018-10-16T07:28:39.262Z,14.87
2018-10-16T07:31:09.192Z,14.92
2018-10-16T07:33:39.212Z,14.96
2018-10-16T07:36:09.160Z,15.01
2018-10-16T07:38:39.220Z,15.10
2018-10-16T07:41:09.250Z,15.17
2018-10-16T07:43:39.235Z,15.25
2018-10-16T07:46:09.235Z,15.33
2018-10-16T07:48:39.256Z,15.43
2018-10-16T07:51:09.176Z,15.51
2018-10-16T07:53:39.123Z,15.61
2018-10-16T07:56:09.062Z,15.69
2018-10-16T07:58:39.006Z,15.79
2018-10-16T08:01:09.007Z,15.89
2018-10-16T08:03:38.935Z,15.98
2018-10-16T08:06:08.885Z,16.07
2018-10-16T08:08:38.844Z,16.14
2018-10-16T08:11:08.833Z,16.23
2018-10-16T08:13:38.775Z,16.33
2018-10-16T08:16:09.653Z,16.43
2018-10-16T08:18:39.642Z,16.55
2018-10-16T08:21:09.644Z,16.66
2018-10-16T08:23:39.687Z,16.80
2018-10-16T08:26:09.599Z,16.93
2018-10-16T08:28:39.573Z,17.08
2018-10-16T08:31:09.516Z,17.22
2018-10-16T08:33:39.656Z,17.38
2018-10-16T08:36:09.659Z,17.53
2018-10-16T08:39:43.590Z,17.69
2018-10-16T08:42:29.134Z,17.90
2018-10-16T08:45:24.102Z,18.04
2018-10-16T08:48:10.397Z,18.20
2018-10-16T08:50:56.657Z,18.36
2018-10-16T08:53:26.566Z,18.51
2018-10-16T08:55:56.525Z,18.65
2018-10-16T08:58:26.511Z,18.81
2018-10-16T09:00:56.458Z,18.97
2018-10-16T09:03:26.344Z,19.12
2018-10-16T09:05:56.279Z,19.28
2018-10-16T09:08:26.239Z,19.44
2018-10-16T09:10:56.198Z,19.60
2018-10-16T09:13:26.166Z,19.76
2018-10-16T09:15:56.180Z,19.93
2018-10-16T09:18:26.207Z,20.07
2018-10-16T09:20:56.700Z,20.21
2018-10-16T09:23:26.561Z,20.32
2018-10-16T09:25:56.629Z,20.43
2018-10-16T09:28:26.743Z,20.54
2018-10-16T09:30:56.823Z,20.62
2018-10-16T09:33:26.794Z,20.72
2018-10-16T09:35:56.755Z,20.83
2018-10-16T09:38:26.756Z,20.95
2018-10-16T09:40:56.708Z,21.06
2018-10-16T09:43:26.648Z,21.18
2018-10-16T09:45:56.603Z,21.31
2018-10-16T09:48:26.498Z,21.43
2018-10-16T09:50:56.487Z,21.57
2018-10-16T09:53:26.715Z,21.68
2018-10-16T09:55:56.685Z,21.80
2018-10-16T09:58:26.664Z,21.92
2018-10-16T10:01:01.531Z,22.04
2018-10-16T10:03:31.491Z,22.17
2018-10-16T10:06:01.437Z,22.27
2018-10-16T10:08:31.385Z,22.39
2018-10-16T10:11:01.433Z,22.52
2018-10-16T10:13:31.260Z,22.64
2018-10-16T10:16:01.231Z,22.74
2018-10-16T10:18:31.205Z,22.86
2018-10-16T10:21:01.184Z,22.95
2018-10-16T10:23:31.173Z,23.06
2018-10-16T10:26:01.065Z,23.15
2018-10-16T10:28:31.066Z,23.24
2018-10-16T10:31:01.059Z,23.33
2018-10-16T10:33:31.059Z,23.43
2018-10-16T10:36:01.085Z,23.52
2018-10-16T10:38:31.070Z,23.61
2018-10-16T10:41:01.125Z,23.71
2018-10-16T10:43:31.092Z,23.81
2018-10-16T10:46:01.042Z,23.90
2018-10-16T10:48:30.993Z,23.99
2018-10-16T10:51:01.128Z,24.09
2018-10-16T10:53:30.873Z,24.18
2018-10-16T10:56:00.828Z,24.27
2018-10-16T10:58:30.789Z,24.36
2018-10-16T11:01:00.758Z,24.45
2018-10-16T11:03:30.820Z,24.53
2018-10-16T11:06:00.684Z,24.61
2018-10-16T11:08:30.663Z,24.64
2018-10-16T11:11:00.683Z,24.76
2018-10-16T11:13:30.667Z,24.86
2018-10-16T11:16:00.632Z,24.93
2018-10-16T11:18:30.679Z,25.02
2018-10-16T11:21:00.663Z,25.10
2018-10-16T11:23:30.642Z,25.19
2018-10-16T11:26:00.623Z,25.26
2018-10-16T11:28:30.638Z,25.34
2018-10-16T11:31:00.587Z,25.41
2018-10-16T11:33:30.550Z,25.48
2018-10-16T11:36:00.445Z,25.47
2018-10-16T11:38:30.381Z,25.63
2018-10-16T11:41:00.315Z,25.71
2018-10-16T11:43:30.325Z,25.77
2018-10-16T11:46:00.202Z,25.85
2018-10-16T11:48:30.171Z,25.92
2018-10-16T11:51:00.178Z,26.00
2018-10-16T11:53:30.099Z,26.07
2018-10-16T11:56:00.115Z,26.14
2018-10-16T11:58:30.019Z,26.21
2018-10-16T12:00:59.970Z,26.25
2018-10-16T12:03:29.963Z,26.33
2018-10-16T12:06:00.077Z,26.39
2018-10-16T12:08:29.974Z,26.47
2018-10-16T12:10:59.955Z,26.50
2018-10-16T12:13:29.959Z,26.52
2018-10-16T12:16:00.060Z,26.53
2018-10-16T12:18:35.319Z,26.53
2018-10-16T12:21:08.119Z,26.54
2018-10-16T12:23:38.087Z,26.57
2018-10-16T12:26:07.998Z,26.54
2018-10-16T12:28:37.992Z,26.51
2018-10-16T12:31:08.085Z,26.49
2018-10-16T12:33:38.132Z,26.47
2018-10-16T12:36:08.220Z,26.43
2018-10-16T12:38:38.187Z,26.39
2018-10-16T12:41:08.142Z,26.39
2018-10-16T12:43:38.253Z,26.38
2018-10-16T12:46:08.099Z,26.40
2018-10-16T12:48:38.026Z,26.45
2018-10-16T12:51:08.071Z,26.48
2018-10-16T12:53:38.044Z,26.54
2018-10-16T12:56:08.383Z,26.60
2018-10-16T12:58:38.282Z,26.66
2018-10-16T13:01:08.264Z,26.71
2018-10-16T13:03:38.212Z,26.77
2018-10-16T13:06:08.138Z,26.81
2018-10-16T13:08:38.140Z,26.84
2018-10-16T13:11:08.133Z,26.89
2018-10-16T13:13:38.037Z,26.94
2018-10-16T13:16:08.074Z,26.98
2018-10-16T13:18:37.950Z,27.02
2018-10-16T13:21:07.993Z,27.07
2018-10-16T13:23:37.993Z,27.10
2018-10-16T13:26:07.988Z,27.13
2018-10-16T13:28:37.919Z,27.18
2018-10-16T13:31:07.902Z,27.21
2018-10-16T13:33:37.868Z,27.26
2018-10-16T13:36:07.966Z,27.30
2018-10-16T13:38:37.945Z,27.31
2018-10-16T13:41:07.939Z,27.34
2018-10-16T13:43:37.924Z,27.37
2018-10-16T13:46:08.013Z,27.39
2018-10-16T13:48:37.945Z,27.41
2018-10-16T13:51:07.892Z,27.41
2018-10-16T13:53:37.877Z,27.39
2018-10-16T13:56:08.354Z,27.35
2018-10-16T13:58:38.304Z,27.30
2018-10-16T14:01:08.268Z,27.25
2018-10-16T14:03:38.220Z,27.21
2018-10-16T14:06:08.194Z,27.17
2018-10-16T14:08:38.171Z,27.15
2018-10-16T14:11:08.172Z,27.12
2018-10-16T14:13:38.114Z,27.13
2018-10-16T14:16:08.110Z,27.13
2018-10-16T14:18:38.087Z,27.12
2018-10-16T14:21:08.017Z,27.12
2018-10-16T14:23:37.990Z,27.13
2018-10-16T14:26:07.989Z,27.14
2018-10-16T14:28:37.919Z,27.13
2018-10-16T14:31:07.868Z,27.14
2018-10-16T14:33:37.859Z,27.10
2018-10-16T14:36:07.799Z,27.11
2018-10-16T14:38:37.759Z,27.06
2018-10-16T14:41:07.723Z,27.00
2018-10-16T14:43:37.698Z,26.93
2018-10-16T14:46:07.811Z,26.80
2018-10-16T14:48:37.698Z,26.66
2018-10-16T14:51:07.649Z,26.52
2018-10-16T14:53:37.685Z,26.37
2018-10-16T14:56:07.747Z,26.20
2018-10-16T14:58:37.705Z,26.05
2018-10-16T15:01:07.765Z,25.87
2018-10-16T15:03:37.713Z,25.71
2018-10-16T15:06:07.720Z,25.55
2018-10-16T15:08:37.658Z,25.37
2018-10-16T15:11:07.643Z,25.18
2018-10-16T15:13:37.622Z,24.98
2018-10-16T15:16:08.142Z,24.79
2018-10-16T15:18:38.090Z,24.61
2018-10-16T15:21:08.167Z,24.44
2018-10-16T15:23:38.265Z,24.25
2018-10-16T15:26:08.245Z,24.07
2018-10-16T15:28:38.159Z,23.90
2018-10-16T15:31:08.171Z,23.72
2018-10-16T15:33:38.165Z,23.55
2018-10-16T15:36:08.176Z,23.39
2018-10-16T15:38:38.159Z,23.23
2018-10-16T15:41:08.706Z,23.09
2018-10-16T15:43:38.655Z,22.96
2018-10-16T15:46:08.728Z,22.84
2018-10-16T15:48:38.636Z,22.74
2018-10-16T15:51:08.667Z,22.63
2018-10-16T15:53:38.631Z,22.55
2018-10-16T15:56:08.672Z,22.45
2018-10-16T15:58:38.618Z,22.35
2018-10-16T16:01:08.617Z,22.26
2018-10-16T16:03:38.550Z,22.19
2018-10-16T16:06:08.570Z,22.13
2018-10-16T16:08:39.377Z,22.05
2018-10-16T16:11:09.378Z,21.99
2018-10-16T16:13:39.329Z,21.91
2018-10-16T16:16:09.333Z,21.84
2018-10-16T16:18:39.326Z,21.77
2018-10-16T16:21:09.316Z,21.72
2018-10-16T16:23:39.424Z,21.64
2018-10-16T16:26:09.419Z,21.57
2018-10-16T16:28:39.408Z,21.51
2018-10-16T16:31:09.393Z,21.44
2018-10-16T16:33:39.398Z,21.38
2018-10-16T16:36:09.478Z,21.31
2018-10-16T16:38:39.444Z,21.25
2018-10-16T16:41:09.525Z,21.18
2018-10-16T16:43:39.517Z,21.10
2018-10-16T16:46:09.667Z,21.04
2018-10-16T16:48:39.499Z,20.97
2018-10-16T16:51:09.462Z,20.90
2018-10-16T16:53:39.467Z,20.81
2018-10-16T16:56:09.521Z,20.73
2018-10-16T16:58:39.467Z,20.66
2018-10-16T17:01:09.501Z,20.59
2018-10-16T17:03:39.481Z,20.51
2018-10-16T17:06:09.516Z,20.42
2018-10-16T17:08:39.479Z,20.34
2018-10-16T17:11:09.467Z,20.26
2018-10-16T17:13:39.438Z,20.16
2018-10-16T17:16:09.505Z,20.06
2018-10-16T17:18:39.464Z,19.97
2018-10-16T17:21:09.504Z,19.90
2018-10-16T17:23:39.479Z,19.82
2018-10-16T17:26:09.771Z,19.76
2018-10-16T17:28:39.566Z,19.70
2018-10-16T17:31:09.535Z,19.64
2018-10-16T17:33:39.460Z,19.56
2018-10-16T17:36:09.416Z,19.49
2018-10-16T17:38:39.330Z,19.43
2018-10-16T17:41:09.302Z,19.37
2018-10-16T17:43:39.905Z,19.30
2018-10-16T17:46:09.878Z,19.25
2018-10-16T17:48:39.814Z,19.19
2018-10-16T17:51:09.873Z,19.13
2018-10-16T17:53:39.817Z,19.09
2018-10-16T17:56:10.167Z,19.04
2018-10-16T17:58:40.146Z,19.01
2018-10-16T18:01:10.154Z,18.97
2018-10-16T18:03:40.130Z,18.93
2018-10-16T18:06:10.202Z,18.90
2018-10-16T18:08:40.327Z,18.86
2018-10-16T18:11:10.342Z,18.83
2018-10-16T18:13:40.223Z,18.81
2018-10-16T18:16:10.197Z,18.80
2018-10-16T18:18:40.209Z,18.81
2018-10-16T18:21:10.258Z,18.82
2018-10-16T18:23:40.231Z,18.84
2018-10-16T18:26:10.192Z,18.84
2018-10-16T18:28:40.206Z,18.84
2018-10-16T18:31:10.197Z,18.85
2018-10-16T18:33:40.207Z,18.83
2018-10-16T18:36:10.228Z,18.83
2018-10-16T18:38:40.989Z,18.82
2018-10-16T18:41:10.882Z,18.80
2018-10-16T18:43:40.849Z,18.78
2018-10-16T18:46:11.015Z,18.77
2018-10-16T18:48:41.056Z,18.74
2018-10-16T18:51:11.167Z,18.73
2018-10-16T18:53:41.040Z,18.69
2018-10-16T18:56:11.045Z,18.67
2018-10-16T18:58:40.991Z,18.64
2018-10-16T19:01:10.968Z,18.62
2018-10-16T19:03:41.021Z,18.59
2018-10-16T19:06:11.515Z,18.55
2018-10-16T19:08:41.497Z,18.53
2018-10-16T19:11:11.506Z,18.50
2018-10-16T19:13:41.640Z,18.47
2018-10-16T19:16:11.690Z,18.43
2018-10-16T19:18:41.716Z,18.42
2018-10-16T19:21:11.841Z,18.39
2018-10-16T19:23:41.797Z,18.37
2018-10-16T19:26:11.841Z,18.33
2018-10-16T19:28:41.855Z,18.30
2018-10-16T19:31:11.889Z,18.28
2018-10-16T19:33:41.800Z,18.25
2018-10-16T19:36:11.850Z,18.23
2018-10-16T19:38:41.954Z,18.21
2018-10-16T19:41:11.938Z,18.19
2018-10-16T19:43:42.033Z,18.17
2018-10-16T19:46:11.978Z,18.16
2018-10-16T19:48:41.999Z,18.13
2018-10-16T19:51:12.117Z,18.11
2018-10-16T19:53:42.073Z,18.10
2018-10-16T19:56:12.036Z,18.08
2018-10-16T19:58:42.043Z,18.07
2018-10-16T20:01:12.000Z,18.04
2018-10-16T20:03:42.006Z,18.03
2018-10-16T20:06:12.003Z,18.00
2018-10-16T20:08:41.992Z,17.99
2018-10-16T20:11:12.000Z,17.97
2018-10-16T20:13:42.028Z,17.96
2018-10-16T20:16:12.037Z,17.95
2018-10-16T20:18:42.339Z,17.93
2018-10-16T20:21:12.315Z,17.93
2018-10-16T20:23:42.320Z,17.91
2018-10-16T20:26:12.346Z,17.90
2018-10-16T20:28:42.476Z,17.88
2018-10-16T20:31:12.618Z,17.85
2018-10-16T20:33:42.484Z,17.84
2018-10-16T20:36:12.488Z,17.82
2018-10-16T20:38:42.495Z,17.78
2018-10-16T20:41:12.492Z,17.74
2018-10-16T20:43:42.580Z,17.71
2018-10-16T20:46:12.890Z,17.67
2018-10-16T20:48:42.870Z,17.62
2018-10-16T20:51:12.861Z,17.58
2018-10-16T20:53:42.804Z,17.52
2018-10-16T20:56:12.770Z,17.48
2018-10-16T20:58:42.763Z,17.43
2018-10-16T21:01:14.120Z,17.39
2018-10-16T21:03:44.620Z,17.32
2018-10-16T21:06:14.679Z,17.27
2018-10-16T21:08:44.544Z,17.22
2018-10-16T21:11:14.540Z,17.17
2018-10-16T21:13:44.451Z,17.06
2018-10-16T21:16:14.423Z,17.06
2018-10-16T21:18:44.493Z,17.02
2018-10-16T21:21:14.456Z,16.97
2018-10-16T21:23:44.432Z,16.93
2018-10-16T21:26:14.433Z,16.89
2018-10-16T21:28:44.390Z,16.85
2018-10-16T21:31:14.487Z,16.80
2018-10-16T21:33:44.322Z,16.77
2018-10-16T21:36:14.315Z,16.73
2018-10-16T21:38:44.320Z,16.69
2018-10-16T21:41:14.415Z,16.65
2018-10-16T21:43:44.296Z,16.62
2018-10-16T21:46:14.197Z,16.59
2018-10-16T21:48:44.129Z,16.57
2018-10-16T21:51:14.453Z,16.54
2018-10-16T21:53:44.486Z,16.52
2018-10-16T21:56:14.519Z,16.49
2018-10-16T21:58:44.496Z,16.47
2018-10-16T22:01:14.520Z,16.44
2018-10-16T22:03:44.427Z,16.41
2018-10-16T22:06:14.401Z,16.39
2018-10-16T22:08:44.387Z,16.37
2018-10-16T22:11:14.467Z,16.33
2018-10-16T22:13:44.395Z,16.32
2018-10-16T22:16:14.280Z,16.28
2018-10-16T22:18:44.217Z,16.26
2018-10-16T22:21:14.172Z,16.24
2018-10-16T22:23:44.116Z,16.22
2018-10-16T22:26:14.020Z,16.18
2018-10-16T22:28:43.957Z,16.16
2018-10-16T22:31:14.012Z,16.13
2018-10-16T22:33:43.946Z,16.10
2018-10-16T22:36:13.904Z,16.07
2018-10-16T22:38:43.830Z,16.04
2018-10-16T22:41:13.887Z,16.01
2018-10-16T22:43:43.827Z,15.97
2018-10-16T22:46:13.751Z,15.95
2018-10-16T22:48:43.735Z,15.92
2018-10-16T22:51:13.715Z,15.88
2018-10-16T22:53:43.670Z,15.85
2018-10-16T22:56:13.616Z,15.82
2018-10-16T22:58:43.589Z,15.79
2018-10-16T23:01:13.577Z,15.76
2018-10-16T23:03:43.466Z,15.74
2018-10-16T23:06:13.423Z,15.72
2018-10-16T23:08:43.379Z,15.70
2018-10-16T23:11:13.447Z,15.67
2018-10-16T23:13:43.291Z,15.68
2018-10-16T23:16:13.224Z,15.66
2018-10-16T23:18:43.204Z,15.65
2018-10-16T23:21:13.187Z,15.66
2018-10-16T23:23:43.075Z,15.66
2018-10-16T23:26:13.032Z,15.65
2018-10-16T23:28:42.945Z,15.66
2018-10-16T23:31:12.918Z,15.67
2018-10-16T23:33:42.861Z,15.66
2018-10-16T23:36:12.804Z,15.66
2018-10-16T23:38:42.721Z,15.65
2018-10-16T23:41:12.801Z,15.65
2018-10-16T23:43:42.731Z,15.63
2018-10-16T23:46:12.610Z,15.62
2018-10-16T23:48:42.602Z,15.60
2018-10-16T23:51:12.595Z,15.58
2018-10-16T23:53:42.492Z,15.55
2018-10-16T23:56:12.433Z,15.54
2018-10-16T23:58:42.423Z,15.52
